• Join FlightAware (Why Join?)
  • Login
  • US Flag 
10:52AM EDT


 

Airport Tracker/Info


-or-


 

Live Flight TrackerFlight Track Log ✈ UPS1231 ✈ 12-Dec-2013 ✈ KRIC - KSDF

Flight Track Log - Related Links

Times and Time Zones

All times are in EST time to prevent confusion due to time zone crossing. See the UPS1231 flight status page for this flight to view local times or setup timezone preferences in your user account.

Time Position Orientation Groundspeed Altitude Reporting Facility
EST Latitude Longitude Course Direction KTS MPH feet Rate Location/Type
10:14PM 37.5167 -77.3167 282° West 153 176 1,300  Level Potomac TRACON
10:15PM 37.5278 -77.3856 282° West 145 167 4,600 3,060 Climbing Washington Center
10:16PM 37.5036 -77.4661 249° West 187 215 8,100 3,120 Climbing Washington Center
10:17PM 37.4794 -77.5519 250° West 225 259 11,000 3,060 Climbing Washington Center
10:18PM 37.4506 -77.6506 250° West 269 310 14,300 3,720 Climbing Washington Center
10:19PM 37.4217 -77.7519 250° West 321 369 18,400 2,820 Climbing Washington Center
10:20PM 37.3925 -77.8661 252° West 346 398 19,900 780 Climbing Washington Center
10:21PM 37.3589 -77.9800 250° West 352 405 20,000  Climbing Washington Center
10:22PM 37.3336 -78.0942 254° West 352 405 20,000  Level Washington Center
10:23PM 37.3081 -78.2211 256° West 341 392 20,000  Level Washington Center
10:24PM 37.2825 -78.3353 254° West 341 392 20,000 960 Level Washington Center
10:25PM 37.2778 -78.4550 267° West 341 392 22,000 2,820 Climbing Washington Center
10:26PM 37.2772 -78.5594 270° West 335 386 25,700 3,240 Climbing Washington Center
10:27PM 37.2806 -78.6797 272° West 335 386 28,500 2,700 Climbing Washington Center
10:28PM 37.2919 -78.8028 277° West 350 403 31,100 2,160 Climbing Washington Center
10:29PM 37.3028 -78.9314 276° West 363 418 32,900 1,380 Climbing Washington Center
10:30PM 37.3139 -79.0622 276° West 369 425 34,000 540 Climbing Washington Center
10:31PM 37.3242 -79.2011 275° West 369 425 34,000  Level Washington Center
10:32PM 37.3331 -79.3269 275° West 369 425 34,000  Level Washington Center
10:33PM 37.3414 -79.4556 275° West 369 425 34,000  Level Washington Center
10:34PM 37.3539 -79.5867 277° West 369 425 34,000  Level Washington Center
10:35PM 37.3639 -79.7181 276° West 369 425 34,000  Level Washington Center
10:36PM 37.3739 -79.8467 276° West 369 425 34,000  Level Washington Center
10:37PM 37.3839 -79.9778 276° West 369 425 34,000  Level Washington Center
10:38PM 37.3939 -80.1039 276° West 369 425 34,000  Level Washington Center
10:39PM 37.4033 -80.2353 275° West 374 430 34,000  Level Washington Center
10:41PM 37.4228 -80.4772 276° West 374 430 34,000  Level Indianapolis Center
10:42PM 37.4314 -80.6044 275° West 373 429 34,000  Level Indianapolis Center
10:43PM 37.4422 -80.7567 275° West 373 429 34,000  Level Indianapolis Center
10:44PM 37.4497 -80.8828 274° West 371 427 34,000  Level Indianapolis Center
10:45PM 37.4589 -81.0083 275° West 369 425 34,000  Level Indianapolis Center
10:46PM 37.4672 -81.1347 275° West 371 427 34,000  Level Indianapolis Center
10:47PM 37.4753 -81.2614 275° West 371 427 34,000  Level Indianapolis Center
10:48PM 37.4856 -81.4128 275° West 370 426 34,000  Level Indianapolis Center
10:49PM 37.4925 -81.5383 274° West 372 428 34,000  Level Indianapolis Center
10:50PM 37.5008 -81.6683 275° West 373 429 34,000  Level Indianapolis Center
10:51PM 37.5092 -81.7981 275° West 372 428 34,000  Level Indianapolis Center
10:52PM 37.5169 -81.9292 274° West 374 430 34,000  Level Indianapolis Center
10:53PM 37.5239 -82.0583 274° West 373 429 34,000  Level Indianapolis Center
10:54PM 37.5314 -82.1875 274° West 371 427 34,000  Level Indianapolis Center
10:55PM 37.5381 -82.3178 274° West 372 428 34,000  Level Indianapolis Center
10:56PM 37.5467 -82.4692 274° West 372 428 34,000  Level Indianapolis Center
10:57PM 37.5536 -82.6011 274° West 376 433 34,000  Level Indianapolis Center
10:58PM 37.5606 -82.7314 274° West 375 432 34,000  Level Indianapolis Center
10:59PM 37.5669 -82.8628 274° West 376 433 34,000  Level Indianapolis Center
11:00PM 37.5736 -82.9947 274° West 376 433 34,000  Level Indianapolis Center
11:01PM 37.5800 -83.1272 274° West 379 436 34,000  Level Indianapolis Center
11:02PM 37.5867 -83.2592 274° West 380 437 34,000  Level Indianapolis Center
11:03PM 37.5925 -83.3908 273° West 377 434 34,000  Level Indianapolis Center
11:04PM 37.5992 -83.5472 273° West 382 440 34,000  Level Indianapolis Center
11:05PM 37.6053 -83.6794 273° West 380 437 34,000 -600 Level Indianapolis Center
11:06PM 37.6111 -83.8144 273° West 385 443 32,900 -2,280 Descending Indianapolis Center
11:07PM 37.6161 -83.9522 273° West 391 450 29,400 -3,840 Descending Indianapolis Center
11:08PM 37.6231 -84.0917 274° West 396 456 25,200 -3,660 Descending Indianapolis Center
11:09PM 37.6283 -84.2300 273° West 395 455 22,000 -2,820 Descending Indianapolis Center
11:10PM 37.6333 -84.3614 273° West 380 437 19,500 -2,220 Descending Indianapolis Center
11:11PM 37.6383 -84.4894 273° West 370 426 17,500 -2,460 Descending Indianapolis Center
11:12PM 37.6419 -84.6128 272° West 354 407 14,600 -2,700 Descending Indianapolis Center
11:13PM 37.6461 -84.7328 273° West 343 395 12,100 -1,800 Descending Indianapolis Center
11:14PM 37.6511 -84.8686 273° West 335 386 11,000 -1,080 Descending Indianapolis Center
11:15PM 37.6697 -84.9817 282° West 331 381 10,000 -540 Descending Indianapolis Center
11:16PM 37.7367 -85.0675 315° West 338 389 10,000  Level Indianapolis Center
11:17PM 37.7997 -85.1547 312° West 335 386 10,000  Level Indianapolis Center
11:18PM 37.8650 -85.2458 312° West 333 383 10,000  Level Indianapolis Center
11:19PM 37.9175 -85.3386 306° West 323 372 10,000  Level Indianapolis Center
11:20PM 37.9558 -85.4344 297° West 303 349 10,000  Level Indianapolis Center
11:21PM 37.9922 -85.5303 296° West 302 348 10,000 -120 Level Indianapolis Center
11:23PM 38.0267 -85.6181 297° West 278 320 9,800 -780 Descending Indianapolis Center
11:24PM 38.0567 -85.6956 296° West 249 287 8,500 -1,320 Descending Indianapolis Center
11:25PM 38.0869 -85.7733 296° West 245 282 7,200 -900 Descending Indianapolis Center
11:26PM 38.1325 -85.8228 320° Northwest 235 270 6,700 -780 Descending Indianapolis Center
11:27PM 38.1883 -85.8456 342° North 216 249 5,700 -1,140 Descending Indianapolis Center
11:28PM 38.2403 -85.8642 344° North 206 237 4,500 -1,080 Descending Indianapolis Center
11:29PM 38.2858 -85.8808 344° North 191 220 3,600 -900 Descending Indianapolis Center
11:30PM 38.2939 -85.8294 79° East 190 219 2,700 -600 Descending Indianapolis Center
11:31PM 38.2636 -85.7697 123° Southeast 186 214 2,500 -300 Descending Indianapolis Center
11:32PM 38.2058 -85.7683 179° South 190 219 2,100 -420 Descending Indianapolis Center